sensor_id;sensor_type;location;lat;lon;timestamp;temperature;humidity
65824;SHT31;52585;47.566;19.056;2022-09-20T00:01:02;14.09;69.26
65824;SHT31;52585;47.566;19.056;2022-09-20T00:03:36;14.09;69.28
65824;SHT31;52585;47.566;19.056;2022-09-20T00:06:05;14.11;69.16
65824;SHT31;52585;47.566;19.056;2022-09-20T00:08:32;14.12;69.37
65824;SHT31;52585;47.566;19.056;2022-09-20T00:10:59;14.14;69.40
65824;SHT31;52585;47.566;19.056;2022-09-20T00:13:34;14.16;69.16
65824;SHT31;52585;47.566;19.056;2022-09-20T00:16:09;14.18;69.12
65824;SHT31;52585;47.566;19.056;2022-09-20T00:18:36;14.20;68.88
65824;SHT31;52585;47.566;19.056;2022-09-20T00:21:03;14.21;68.64
65824;SHT31;52585;47.566;19.056;2022-09-20T00:23:28;14.21;68.53
65824;SHT31;52585;47.566;19.056;2022-09-20T00:26:04;14.21;68.47
65824;SHT31;52585;47.566;19.056;2022-09-20T00:28:30;14.21;68.50
65824;SHT31;52585;47.566;19.056;2022-09-20T00:30:56;14.22;68.43
65824;SHT31;52585;47.566;19.056;2022-09-20T00:33:22;14.21;68.36
65824;SHT31;52585;47.566;19.056;2022-09-20T00:35:50;14.19;68.38
65824;SHT31;52585;47.566;19.056;2022-09-20T00:38:15;14.18;68.44
65824;SHT31;52585;47.566;19.056;2022-09-20T00:40:42;14.18;68.50
65824;SHT31;52585;47.566;19.056;2022-09-20T00:43:15;14.15;68.36
65824;SHT31;52585;47.566;19.056;2022-09-20T00:45:43;14.14;68.38
65824;SHT31;52585;47.566;19.056;2022-09-20T00:48:14;14.12;68.38
65824;SHT31;52585;47.566;19.056;2022-09-20T00:50:58;14.10;68.39
65824;SHT31;52585;47.566;19.056;2022-09-20T00:53:31;14.07;68.42
65824;SHT31;52585;47.566;19.056;2022-09-20T00:56:02;14.05;68.43
65824;SHT31;52585;47.566;19.056;2022-09-20T00:58:33;14.03;68.36
65824;SHT31;52585;47.566;19.056;2022-09-20T01:01:01;14.03;68.41
65824;SHT31;52585;47.566;19.056;2022-09-20T01:03:30;14.01;68.48
65824;SHT31;52585;47.566;19.056;2022-09-20T01:05:58;14.00;68.38
65824;SHT31;52585;47.566;19.056;2022-09-20T01:08:28;13.99;68.34
65824;SHT31;52585;47.566;19.056;2022-09-20T01:10:54;13.98;68.35
65824;SHT31;52585;47.566;19.056;2022-09-20T01:13:20;13.97;68.31
65824;SHT31;52585;47.566;19.056;2022-09-20T01:15:45;13.96;68.36
65824;SHT31;52585;47.566;19.056;2022-09-20T01:18:13;13.94;68.34
65824;SHT31;52585;47.566;19.056;2022-09-20T01:20:40;13.94;68.20
65824;SHT31;52585;47.566;19.056;2022-09-20T01:28:22;13.92;68.34
65824;SHT31;52585;47.566;19.056;2022-09-20T01:31:09;13.92;68.48
65824;SHT31;52585;47.566;19.056;2022-09-20T01:36:38;13.94;68.29
65824;SHT31;52585;47.566;19.056;2022-09-20T01:42:01;13.99;67.94
65824;SHT31;52585;47.566;19.056;2022-09-20T02:06:14;14.00;67.56
65824;SHT31;52585;47.566;19.056;2022-09-20T02:17:26;13.95;67.61
65824;SHT31;52585;47.566;19.056;2022-09-20T02:28:43;13.90;67.70
65824;SHT31;52585;47.566;19.056;2022-09-20T02:31:22;13.88;67.79
65824;SHT31;52585;47.566;19.056;2022-09-20T02:45:24;13.81;67.76
65824;SHT31;52585;47.566;19.056;2022-09-20T02:48:05;13.79;67.77
65824;SHT31;52585;47.566;19.056;2022-09-20T03:02:20;13.76;67.89
65824;SHT31;52585;47.566;19.056;2022-09-20T03:08:20;13.80;67.91
65824;SHT31;52585;47.566;19.056;2022-09-20T03:17:02;13.88;67.62
65824;SHT31;52585;47.566;19.056;2022-09-20T03:28:10;13.89;67.37
65824;SHT31;52585;47.566;19.056;2022-09-20T03:31:02;13.87;67.34
65824;SHT31;52585;47.566;19.056;2022-09-20T03:36:37;13.83;67.39
65824;SHT31;52585;47.566;19.056;2022-09-20T03:39:18;13.82;67.39
65824;SHT31;52585;47.566;19.056;2022-09-20T03:42:17;13.80;67.40
65824;SHT31;52585;47.566;19.056;2022-09-20T03:44:58;13.78;67.42
65824;SHT31;52585;47.566;19.056;2022-09-20T03:53:13;13.74;67.54
65824;SHT31;52585;47.566;19.056;2022-09-20T04:01:26;13.68;67.59
65824;SHT31;52585;47.566;19.056;2022-09-20T04:12:32;13.60;67.73
65824;SHT31;52585;47.566;19.056;2022-09-20T04:15:24;13.58;67.84
65824;SHT31;52585;47.566;19.056;2022-09-20T04:18:01;13.56;67.93
65824;SHT31;52585;47.566;19.056;2022-09-20T04:20:44;13.55;67.83
65824;SHT31;52585;47.566;19.056;2022-09-20T04:23:17;13.54;67.85
65824;SHT31;52585;47.566;19.056;2022-09-20T04:25:56;13.52;67.91
65824;SHT31;52585;47.566;19.056;2022-09-20T04:31:54;13.51;67.94
65824;SHT31;52585;47.566;19.056;2022-09-20T04:34:38;13.52;68.02
65824;SHT31;52585;47.566;19.056;2022-09-20T04:37:27;13.54;68.04
65824;SHT31;52585;47.566;19.056;2022-09-20T05:00:03;13.66;67.41
65824;SHT31;52585;47.566;19.056;2022-09-20T05:08:06;13.62;67.71
65824;SHT31;52585;47.566;19.056;2022-09-20T05:22:07;13.54;67.99
65824;SHT31;52585;47.566;19.056;2022-09-20T05:28:05;13.52;67.93
65824;SHT31;52585;47.566;19.056;2022-09-20T05:33:23;13.49;67.81
65824;SHT31;52585;47.566;19.056;2022-09-20T05:38:47;13.47;68.03
65824;SHT31;52585;47.566;19.056;2022-09-20T06:01:03;13.45;68.48
65824;SHT31;52585;47.566;19.056;2022-09-20T06:03:43;13.44;68.31
65824;SHT31;52585;47.566;19.056;2022-09-20T06:22:15;13.53;68.28
65824;SHT31;52585;47.566;19.056;2022-09-20T06:27:27;13.57;68.17
65824;SHT31;52585;47.566;19.056;2022-09-20T06:29:59;13.60;68.30
65824;SHT31;52585;47.566;19.056;2022-09-20T06:32:30;13.64;68.26
65824;SHT31;52585;47.566;19.056;2022-09-20T06:34:56;13.65;68.22
65824;SHT31;52585;47.566;19.056;2022-09-20T06:38:02;13.66;68.35
65824;SHT31;52585;47.566;19.056;2022-09-20T06:40:45;13.67;68.27
65824;SHT31;52585;47.566;19.056;2022-09-20T06:43:34;13.66;68.21
65824;SHT31;52585;47.566;19.056;2022-09-20T06:46:02;13.67;68.24
65824;SHT31;52585;47.566;19.056;2022-09-20T06:48:27;13.69;68.32
65824;SHT31;52585;47.566;19.056;2022-09-20T06:50:55;13.69;68.25
65824;SHT31;52585;47.566;19.056;2022-09-20T06:53:29;13.70;68.34
65824;SHT31;52585;47.566;19.056;2022-09-20T06:55:56;13.71;68.33
65824;SHT31;52585;47.566;19.056;2022-09-20T06:58:23;13.72;68.27
65824;SHT31;52585;47.566;19.056;2022-09-20T07:00:50;13.73;68.20
65824;SHT31;52585;47.566;19.056;2022-09-20T07:03:17;13.74;68.26
65824;SHT31;52585;47.566;19.056;2022-09-20T07:05:44;13.74;68.46
65824;SHT31;52585;47.566;19.056;2022-09-20T07:08:10;13.77;68.50
65824;SHT31;52585;47.566;19.056;2022-09-20T07:10:36;13.79;68.54
65824;SHT31;52585;47.566;19.056;2022-09-20T07:13:02;13.82;68.57
65824;SHT31;52585;47.566;19.056;2022-09-20T07:15:30;13.84;68.56
65824;SHT31;52585;47.566;19.056;2022-09-20T07:17:57;13.86;68.51
65824;SHT31;52585;47.566;19.056;2022-09-20T07:20:23;13.88;68.50
65824;SHT31;52585;47.566;19.056;2022-09-20T07:22:49;13.91;68.41
65824;SHT31;52585;47.566;19.056;2022-09-20T07:25:15;13.93;68.32
65824;SHT31;52585;47.566;19.056;2022-09-20T07:27:42;13.95;68.33
65824;SHT31;52585;47.566;19.056;2022-09-20T07:30:11;13.96;68.37
65824;SHT31;52585;47.566;19.056;2022-09-20T07:32:38;13.97;68.32
65824;SHT31;52585;47.566;19.056;2022-09-20T07:35:08;13.96;68.20
65824;SHT31;52585;47.566;19.056;2022-09-20T07:37:35;13.99;68.22
65824;SHT31;52585;47.566;19.056;2022-09-20T07:40:01;14.02;68.30
65824;SHT31;52585;47.566;19.056;2022-09-20T07:42:27;14.04;68.09
65824;SHT31;52585;47.566;19.056;2022-09-20T07:44:53;14.09;68.01
65824;SHT31;52585;47.566;19.056;2022-09-20T07:47:20;14.14;68.16
65824;SHT31;52585;47.566;19.056;2022-09-20T07:49:49;14.20;68.15
65824;SHT31;52585;47.566;19.056;2022-09-20T07:52:16;14.24;68.12
65824;SHT31;52585;47.566;19.056;2022-09-20T07:54:42;14.28;68.07
65824;SHT31;52585;47.566;19.056;2022-09-20T07:57:10;14.31;67.95
65824;SHT31;52585;47.566;19.056;2022-09-20T07:59:36;14.34;67.49
65824;SHT31;52585;47.566;19.056;2022-09-20T08:02:01;14.34;67.38
65824;SHT31;52585;47.566;19.056;2022-09-20T08:04:26;14.36;67.51
65824;SHT31;52585;47.566;19.056;2022-09-20T08:06:58;14.39;67.29
65824;SHT31;52585;47.566;19.056;2022-09-20T08:09:25;14.41;67.32
65824;SHT31;52585;47.566;19.056;2022-09-20T08:11:50;14.44;67.35
65824;SHT31;52585;47.566;19.056;2022-09-20T08:14:16;14.46;67.27
65824;SHT31;52585;47.566;19.056;2022-09-20T08:16:43;14.49;67.22
65824;SHT31;52585;47.566;19.056;2022-09-20T08:19:15;14.50;67.22
65824;SHT31;52585;47.566;19.056;2022-09-20T08:21:42;14.50;66.79
65824;SHT31;52585;47.566;19.056;2022-09-20T08:24:08;14.50;66.76
65824;SHT31;52585;47.566;19.056;2022-09-20T08:26:35;14.51;66.74
65824;SHT31;52585;47.566;19.056;2022-09-20T08:29:01;14.53;66.66
65824;SHT31;52585;47.566;19.056;2022-09-20T08:31:30;14.53;66.58
65824;SHT31;52585;47.566;19.056;2022-09-20T08:33:58;14.54;66.77
65824;SHT31;52585;47.566;19.056;2022-09-20T08:36:28;14.55;66.69
65824;SHT31;52585;47.566;19.056;2022-09-20T08:38:54;14.56;66.69
65824;SHT31;52585;47.566;19.056;2022-09-20T08:41:31;14.56;66.68
65824;SHT31;52585;47.566;19.056;2022-09-20T08:44:05;14.56;66.65
65824;SHT31;52585;47.566;19.056;2022-09-20T08:46:37;14.58;66.99
65824;SHT31;52585;47.566;19.056;2022-09-20T08:49:06;14.60;66.78
65824;SHT31;52585;47.566;19.056;2022-09-20T08:51:35;14.63;66.84
65824;SHT31;52585;47.566;19.056;2022-09-20T08:54:04;14.65;66.92
65824;SHT31;52585;47.566;19.056;2022-09-20T08:56:33;14.66;66.43
65824;SHT31;52585;47.566;19.056;2022-09-20T08:59:03;14.66;66.16
65824;SHT31;52585;47.566;19.056;2022-09-20T09:01:30;14.67;66.65
65824;SHT31;52585;47.566;19.056;2022-09-20T09:04:10;14.69;66.63
65824;SHT31;52585;47.566;19.056;2022-09-20T09:06:38;14.71;66.51
65824;SHT31;52585;47.566;19.056;2022-09-20T09:09:04;14.71;66.36
65824;SHT31;52585;47.566;19.056;2022-09-20T09:11:31;14.72;66.14
65824;SHT31;52585;47.566;19.056;2022-09-20T09:14:04;14.72;65.99
65824;SHT31;52585;47.566;19.056;2022-09-20T09:16:55;14.74;66.25
65824;SHT31;52585;47.566;19.056;2022-09-20T09:19:31;14.77;66.68
65824;SHT31;52585;47.566;19.056;2022-09-20T09:22:07;14.78;66.50
65824;SHT31;52585;47.566;19.056;2022-09-20T09:24:33;14.82;66.78
65824;SHT31;52585;47.566;19.056;2022-09-20T09:29:49;14.85;65.93
65824;SHT31;52585;47.566;19.056;2022-09-20T09:32:23;14.88;66.20
65824;SHT31;52585;47.566;19.056;2022-09-20T09:34:55;14.92;65.92
65824;SHT31;52585;47.566;19.056;2022-09-20T09:37:33;14.97;65.65
65824;SHT31;52585;47.566;19.056;2022-09-20T09:40:32;15.02;66.20
65824;SHT31;52585;47.566;19.056;2022-09-20T09:43:09;15.10;66.28
65824;SHT31;52585;47.566;19.056;2022-09-20T09:45:44;15.17;65.91
65824;SHT31;52585;47.566;19.056;2022-09-20T09:48:43;15.22;66.09
65824;SHT31;52585;47.566;19.056;2022-09-20T09:51:11;15.25;66.32
65824;SHT31;52585;47.566;19.056;2022-09-20T09:53:42;15.30;66.22
65824;SHT31;52585;47.566;19.056;2022-09-20T10:07:17;15.54;65.43
65824;SHT31;52585;47.566;19.056;2022-09-20T10:15:55;15.53;65.15
65824;SHT31;52585;47.566;19.056;2022-09-20T10:18:26;15.53;65.01
65824;SHT31;52585;47.566;19.056;2022-09-20T10:21:03;15.53;65.19
65824;SHT31;52585;47.566;19.056;2022-09-20T10:35:10;15.68;65.87
65824;SHT31;52585;47.566;19.056;2022-09-20T10:40:53;15.73;65.70
65824;SHT31;52585;47.566;19.056;2022-09-20T10:48:47;15.84;65.80
65824;SHT31;52585;47.566;19.056;2022-09-20T10:57:11;15.90;65.07
65824;SHT31;52585;47.566;19.056;2022-09-20T11:00:12;15.94;65.23
65824;SHT31;52585;47.566;19.056;2022-09-20T11:08:35;16.06;64.66
